Time;durP1;ratioP1;P1;durP2;ratioP2;P2;SDS_P1;SDS_P2;PMS_P1;PMS_P2;Temp;Humidity;BMP_temperature;BMP_pressure;BME280_temperature;BME280_humidity;BME280_pressure;Samples;Min_cycle;Max_cycle;Signal;HPM_P1;HPM_P2
2022/01/17 00:01:36;;;;;;;14.70;2.25;;;6.00;99.90;;;;;;4937561;28;20122;-69
2022/01/17 00:04:01;;;;;;;13.60;2.38;;;6.00;99.90;;;;;;4937128;28;20688;-69
2022/01/17 00:06:27;;;;;;;16.63;3.70;;;6.00;99.90;;;;;;4940201;28;20040;-69
2022/01/17 00:08:53;;;;;;;11.97;2.30;;;6.00;99.90;;;;;;4940767;28;20043;-69
2022/01/17 00:11:19;;;;;;;15.40;2.10;;;6.00;99.90;;;;;;4939907;28;20048;-69
2022/01/17 00:13:46;;;;;;;;;;;5.90;99.90;;;;;;4921175;29;20039;-69
2022/01/17 00:16:17;;;;;;;8.63;1.80;;;5.90;99.90;;;;;;4937049;28;19918;-69
2022/01/17 00:21:08;;;;;;;19.53;2.40;;;5.90;99.90;;;;;;4937625;28;20089;-69
2022/01/17 00:23:34;;;;;;;8.17;1.80;;;5.80;99.90;;;;;;4938510;28;20058;-68
2022/01/17 00:26:00;;;;;;;10.10;1.60;;;5.80;99.90;;;;;;4935863;28;20043;-68
2022/01/17 00:28:26;;;;;;;17.95;2.33;;;5.70;99.90;;;;;;4937873;29;20091;-68
2022/01/17 00:30:51;;;;;;;10.40;1.67;;;5.70;99.90;;;;;;4938348;28;20043;-68
2022/01/17 00:33:17;;;;;;;15.33;1.73;;;5.70;99.90;;;;;;4943662;28;20050;-68
2022/01/17 00:35:43;;;;;;;13.93;2.17;;;5.70;99.90;;;;;;4947915;28;20178;-67
2022/01/17 00:38:11;;;;;;;19.20;2.67;;;5.80;99.90;;;;;;4937464;29;20043;-68
2022/01/17 00:40:36;;;;;;;16.05;2.03;;;5.70;99.90;;;;;;4946957;28;20106;-68
2022/01/17 00:43:02;;;;;;;15.27;1.97;;;5.70;99.90;;;;;;4944525;28;20042;-67
2022/01/17 00:45:29;;;;;;;8.00;2.20;;;5.70;99.90;;;;;;4942672;28;20048;-67
2022/01/17 00:47:55;;;;;;;14.52;1.70;;;5.70;99.90;;;;;;4945815;28;20058;-68
2022/01/17 00:50:22;;;;;;;19.80;2.10;;;5.70;99.90;;;;;;4947257;28;20047;-68
2022/01/17 00:52:48;;;;;;;12.45;2.15;;;5.70;99.90;;;;;;4940967;28;20059;-66
2022/01/17 00:55:14;;;;;;;11.57;2.17;;;5.70;99.90;;;;;;4936687;28;20042;-68
2022/01/17 00:57:40;;;;;;;12.83;1.87;;;5.70;99.90;;;;;;4941834;28;20157;-68
2022/01/17 01:00:07;;;;;;;11.45;2.35;;;5.70;99.90;;;;;;4942120;28;20035;-67
2022/01/17 01:02:34;;;;;;;13.55;2.50;;;5.70;99.90;;;;;;4943290;28;20394;-66
2022/01/17 01:04:59;;;;;;;11.27;2.10;;;5.70;99.90;;;;;;4946851;28;20135;-68
2022/01/17 01:07:25;;;;;;;21.60;2.97;;;5.70;99.90;;;;;;4940700;28;20114;-67
2022/01/17 01:10:03;;;;;;;15.00;2.83;;;5.60;99.90;;;;;;4937900;29;20492;-67
2022/01/17 01:12:28;;;;;;;18.20;2.78;;;5.60;99.90;;;;;;4935796;28;20050;-67
2022/01/17 01:14:54;;;;;;;14.67;3.03;;;5.60;99.90;;;;;;4944129;29;20043;-67
2022/01/17 01:17:32;;;;;;;17.30;2.10;;;5.60;99.90;;;;;;4934969;28;20473;-67
2022/01/17 01:20:18;;;;;;;13.85;3.08;;;5.60;99.90;;;;;;4944966;28;20059;-67
2022/01/17 01:28:14;;;;;;;17.45;2.75;;;5.60;99.90;;;;;;4944976;28;20571;-68
2022/01/17 01:30:44;;;;;;;13.20;1.67;;;5.50;99.90;;;;;;4949190;28;20131;-68
2022/01/17 01:33:09;;;;;;;11.40;1.85;;;5.50;99.90;;;;;;4941439;28;20059;-68
2022/01/17 01:35:43;;;;;;;16.47;1.97;;;5.40;99.90;;;;;;4942924;29;20393;-67
2022/01/17 01:38:09;;;;;;;19.95;2.85;;;5.40;99.90;;;;;;4941142;28;20039;-67
2022/01/17 01:40:35;;;;;;;10.57;1.57;;;5.30;99.90;;;;;;4943060;28;20096;-67
2022/01/17 01:43:01;;;;;;;14.45;2.00;;;5.30;99.90;;;;;;4962331;23;20102;31
2022/01/17 01:45:27;;;;;;;15.07;2.40;;;5.30;99.90;;;;;;4941437;29;20051;-84
2022/01/17 01:47:53;;;;;;;16.92;2.55;;;5.30;99.90;;;;;;4953170;28;20090;-84
2022/01/17 01:50:19;;;;;;;17.83;2.37;;;5.20;99.90;;;;;;4924034;23;20111;-68
2022/01/17 01:52:45;;;;;;;16.90;2.60;;;5.30;99.90;;;;;;4928396;28;21085;-68
2022/01/17 01:55:17;;;;;;;25.07;2.73;;;5.30;99.90;;;;;;4944872;29;20043;-68
2022/01/17 01:57:44;;;;;;;11.57;2.20;;;5.20;99.90;;;;;;4940088;28;20049;-68
2022/01/17 02:00:11;;;;;;;14.00;2.30;;;5.20;99.90;;;;;;4943413;28;20213;-68
2022/01/17 02:02:37;;;;;;;26.77;2.40;;;5.20;99.90;;;;;;4945060;28;20043;-68
2022/01/17 02:05:04;;;;;;;13.50;2.40;;;5.20;99.90;;;;;;4946697;28;20055;-68
2022/01/17 02:07:30;;;;;;;11.43;3.10;;;5.20;99.90;;;;;;4939947;28;20260;-68
2022/01/17 02:09:56;;;;;;;26.33;3.55;;;5.20;99.90;;;;;;4943796;29;20094;-68
2022/01/17 02:12:23;;;;;;;11.77;2.07;;;5.10;99.90;;;;;;4945530;28;20035;-68
2022/01/17 02:14:50;;;;;;;;;;;5.10;99.90;;;;;;4945017;28;20043;-68
2022/01/17 02:17:16;;;;;;;25.75;3.22;;;5.10;99.90;;;;;;4941527;28;19918;-68
2022/01/17 02:19:46;;;;;;;14.48;3.30;;;5.10;99.90;;;;;;4935410;28;20058;-68
2022/01/17 02:22:13;;;;;;;14.23;3.22;;;5.10;99.90;;;;;;4935357;28;20046;-68
2022/01/17 02:24:39;;;;;;;15.98;3.13;;;5.10;99.90;;;;;;4944092;28;20059;-67
2022/01/17 02:27:05;;;;;;;19.07;2.67;;;5.10;99.90;;;;;;4945726;28;20047;-68
2022/01/17 02:29:30;;;;;;;20.70;2.63;;;5.10;99.90;;;;;;4946272;28;20050;-68
2022/01/17 02:31:56;;;;;;;10.23;1.93;;;5.10;99.90;;;;;;4944908;29;20569;-68
2022/01/17 02:34:22;;;;;;;13.40;2.97;;;5.10;99.90;;;;;;4942395;28;20050;-68
2022/01/17 02:36:48;;;;;;;19.35;4.30;;;5.10;99.90;;;;;;4942153;28;20055;-68
2022/01/17 02:39:15;;;;;;;17.97;1.83;;;5.10;99.90;;;;;;4945548;29;20043;-68
2022/01/17 02:41:49;;;;;;;13.40;2.42;;;5.00;99.90;;;;;;4945511;29;20113;-68
2022/01/17 02:44:15;;;;;;;23.25;2.58;;;5.10;99.90;;;;;;4942832;28;20493;-68
2022/01/17 02:46:41;;;;;;;11.35;2.17;;;5.10;99.90;;;;;;4927183;29;20035;-68
2022/01/17 02:49:06;;;;;;;17.40;4.17;;;5.10;99.90;;;;;;4935497;28;21109;-68
2022/01/17 02:51:34;;;;;;;16.20;2.13;;;5.10;99.90;;;;;;4945885;28;20035;-68
2022/01/17 02:53:59;;;;;;;21.40;2.83;;;5.10;99.90;;;;;;4947211;28;20645;-67
2022/01/17 02:56:25;;;;;;;12.13;2.10;;;5.20;99.90;;;;;;4941960;28;20292;-67
2022/01/17 02:58:51;;;;;;;23.10;2.87;;;5.20;99.90;;;;;;4943735;28;20488;-67
2022/01/17 03:01:20;;;;;;;20.67;2.70;;;5.20;99.90;;;;;;4947432;28;20035;-68
2022/01/17 03:03:46;;;;;;;22.20;3.33;;;5.20;99.90;;;;;;4942780;28;20054;-68
2022/01/17 03:06:12;;;;;;;14.65;2.67;;;5.20;99.90;;;;;;4942555;28;20451;-68
2022/01/17 03:08:40;;;;;;;22.50;3.15;;;5.20;99.90;;;;;;4956045;28;20045;-68
2022/01/17 03:11:07;;;;;;;12.23;2.05;;;5.20;99.90;;;;;;4944668;29;20046;-68
2022/01/17 03:13:36;;;;;;;13.73;2.13;;;5.20;99.90;;;;;;4943275;29;20069;-68
2022/01/17 03:16:09;;;;;;;12.07;1.83;;;5.20;99.90;;;;;;4945418;28;20127;-68
2022/01/17 03:18:39;;;;;;;17.25;2.55;;;5.20;99.90;;;;;;4936490;28;20689;-68
2022/01/17 03:21:07;;;;;;;17.63;2.25;;;5.30;99.90;;;;;;4936131;28;20070;-68
2022/01/17 03:23:32;;;;;;;18.83;2.17;;;5.30;99.90;;;;;;4948180;29;20039;-68
2022/01/17 03:25:58;;;;;;;18.67;1.90;;;5.30;99.90;;;;;;4939764;29;20399;-68
2022/01/17 03:28:25;;;;;;;13.47;1.90;;;5.30;99.90;;;;;;4936510;28;20031;-67
2022/01/17 03:30:51;;;;;;;;;;;5.30;99.90;;;;;;4943145;28;20126;-68
2022/01/17 03:33:17;;;;;;;15.68;2.22;;;5.30;99.90;;;;;;4937762;28;19926;-68
2022/01/17 03:35:44;;;;;;;17.85;2.20;;;5.30;99.90;;;;;;4925507;28;20046;-68
2022/01/17 03:38:11;;;;;;;10.10;2.95;;;5.30;99.90;;;;;;4935001;29;20147;-68
2022/01/17 03:40:37;;;;;;;14.05;2.53;;;5.30;99.90;;;;;;4938523;28;20044;-68
2022/01/17 03:43:04;;;;;;;11.63;1.88;;;5.30;99.90;;;;;;4941209;29;20106;-68
2022/01/17 03:45:29;;;;;;;12.40;1.77;;;5.30;99.90;;;;;;4937608;28;20071;-68
2022/01/17 03:47:55;;;;;;;12.60;1.70;;;5.30;99.90;;;;;;4942520;28;20066;-67
2022/01/17 03:50:23;;;;;;;8.77;2.03;;;5.40;99.90;;;;;;4937200;28;20047;-68
2022/01/17 03:52:50;;;;;;;13.27;2.75;;;5.40;99.90;;;;;;4943934;29;20396;-68
2022/01/17 03:55:19;;;;;;;12.88;1.83;;;5.50;99.90;;;;;;4940868;28;20516;-67
2022/01/17 03:57:45;;;;;;;12.77;1.88;;;5.50;99.90;;;;;;4938671;28;20420;-68
2022/01/17 04:00:15;;;;;;;17.58;2.05;;;5.50;99.90;;;;;;4943450;28;20558;-68
2022/01/17 04:02:41;;;;;;;14.30;2.03;;;5.50;99.90;;;;;;4943860;29;20039;-68
2022/01/17 04:05:07;;;;;;;13.05;3.22;;;5.60;99.90;;;;;;4946610;28;20042;-68
2022/01/17 04:07:33;;;;;;;10.18;2.08;;;5.60;99.90;;;;;;4941671;28;20074;-68
2022/01/17 04:09:59;;;;;;;14.27;2.37;;;5.70;99.90;;;;;;4943328;28;20071;-68
2022/01/17 04:12:24;;;;;;;11.50;1.93;;;5.70;99.90;;;;;;4929421;28;20073;-68
2022/01/17 04:14:54;;;;;;;9.63;2.20;;;5.70;99.90;;;;;;4941133;28;20067;-68
2022/01/17 04:17:20;;;;;;;12.60;2.05;;;5.80;99.90;;;;;;4941713;28;20508;-68
2022/01/17 04:19:52;;;;;;;19.27;1.90;;;5.80;99.90;;;;;;4936349;29;20661;-68
2022/01/17 04:22:21;;;;;;;6.57;1.33;;;5.80;99.90;;;;;;4919230;28;22398;-68
2022/01/17 04:24:46;;;;;;;7.88;1.55;;;5.80;99.90;;;;;;4932140;28;20051;-68
2022/01/17 04:27:12;;;;;;;16.07;1.90;;;5.80;99.90;;;;;;4937358;28;20035;-68
2022/01/17 04:29:39;;;;;;;11.43;2.63;;;5.80;99.90;;;;;;4934934;28;20445;-68
2022/01/17 04:32:05;;;;;;;5.93;1.40;;;5.90;99.90;;;;;;4932072;28;20373;-67
2022/01/17 04:34:32;;;;;;;14.50;2.08;;;5.90;99.90;;;;;;4939058;29;20095;-68
2022/01/17 04:36:58;;;;;;;20.02;2.83;;;5.90;99.90;;;;;;4934028;28;20126;-68
2022/01/17 04:39:23;;;;;;;19.13;1.83;;;5.90;99.90;;;;;;4935262;28;20285;-67
2022/01/17 04:41:49;;;;;;;13.53;2.03;;;6.00;99.90;;;;;;4936686;29;20132;-68
2022/01/17 04:46:59;;;;;;;19.45;1.98;;;6.00;99.90;;;;;;4941905;28;21238;-68
2022/01/17 04:49:24;;;;;;;9.93;2.30;;;6.10;99.90;;;;;;4944955;28;20032;-68
2022/01/17 04:51:53;;;;;;;13.70;2.13;;;6.10;99.90;;;;;;4943778;28;20078;-68
2022/01/17 04:54:40;;;;;;;13.20;1.92;;;6.10;99.90;;;;;;4931665;29;20099;-72
2022/01/17 04:57:07;;;;;;;11.27;1.77;;;6.10;99.90;;;;;;4944475;28;20047;-68
2022/01/17 04:59:33;;;;;;;11.00;2.28;;;6.20;99.90;;;;;;4945789;28;20102;-68
2022/01/17 05:01:59;;;;;;;13.70;2.73;;;6.20;99.90;;;;;;4933311;28;20725;-68
2022/01/17 05:04:24;;;;;;;10.73;2.03;;;6.20;99.90;;;;;;4943024;28;20327;-68
2022/01/17 05:06:50;;;;;;;13.77;2.87;;;6.20;99.90;;;;;;4939351;28;20114;-67
2022/01/17 05:09:16;;;;;;;10.63;2.07;;;6.30;99.90;;;;;;4947403;29;20058;-67
2022/01/17 05:11:42;;;;;;;20.63;2.10;;;6.30;99.90;;;;;;4949750;28;20041;-68
2022/01/17 05:14:08;;;;;;;;;;;6.30;99.90;;;;;;4942363;28;20404;-68
2022/01/17 05:16:39;;;;;;;16.13;2.83;;;6.30;99.90;;;;;;4937502;28;19927;-68
2022/01/17 05:21:49;;;;;;;17.75;2.65;;;6.30;99.90;;;;;;4945492;28;20206;-68
2022/01/17 05:24:15;;;;;;;18.43;2.37;;;6.30;99.90;;;;;;4945487;29;20130;-68
2022/01/17 05:26:41;;;;;;;22.80;3.47;;;6.30;99.90;;;;;;4942707;28;20516;-68
2022/01/17 05:29:07;;;;;;;11.93;2.88;;;6.30;99.90;;;;;;4943175;28;20074;-68
2022/01/17 05:31:32;;;;;;;16.23;2.50;;;6.40;99.90;;;;;;4944826;28;20051;-68
2022/01/17 05:33:58;;;;;;;11.60;2.33;;;6.40;99.90;;;;;;4940706;28;20050;-68
2022/01/17 05:36:23;;;;;;;23.07;3.07;;;6.40;99.90;;;;;;4939006;28;20504;-68
2022/01/17 05:38:49;;;;;;;15.13;3.13;;;6.40;99.90;;;;;;4935519;28;20562;-68
2022/01/17 05:41:14;;;;;;;14.33;2.70;;;6.40;99.90;;;;;;4943150;28;20050;-68
2022/01/17 05:43:40;;;;;;;21.60;3.50;;;6.40;99.90;;;;;;4939050;28;20098;-68
2022/01/17 05:46:05;;;;;;;10.57;2.60;;;6.40;99.90;;;;;;4943012;28;20039;-68
2022/01/17 05:48:31;;;;;;;12.43;3.53;;;6.40;99.90;;;;;;4943327;28;20106;-68
2022/01/17 05:50:57;;;;;;;15.10;4.63;;;6.50;99.90;;;;;;4946795;28;20075;-68
2022/01/17 05:53:22;;;;;;;16.00;3.30;;;6.50;99.90;;;;;;4945190;28;20035;-68
2022/01/17 05:55:48;;;;;;;14.73;2.33;;;6.50;99.90;;;;;;4942283;28;20740;-68
2022/01/17 05:58:16;;;;;;;18.23;3.63;;;6.50;99.90;;;;;;4926878;28;20028;-68
2022/01/17 06:00:44;;;;;;;18.50;2.47;;;6.50;99.90;;;;;;4927358;29;20075;-68
2022/01/17 06:03:11;;;;;;;25.10;2.95;;;6.50;99.90;;;;;;4942764;29;20125;-68
2022/01/17 06:05:37;;;;;;;24.80;3.17;;;6.50;99.90;;;;;;4940844;28;20047;-68
2022/01/17 06:08:02;;;;;;;19.13;3.27;;;6.50;99.90;;;;;;4938965;28;20305;-68
2022/01/17 06:10:28;;;;;;;11.83;2.40;;;6.50;99.90;;;;;;4935863;28;20126;-68
2022/01/17 06:12:54;;;;;;;18.53;4.30;;;6.50;99.90;;;;;;4946466;28;20043;-68
2022/01/17 06:15:19;;;;;;;13.50;2.60;;;6.50;99.90;;;;;;4942435;28;20133;-68
2022/01/17 06:17:45;;;;;;;22.57;4.13;;;6.50;99.90;;;;;;4935131;28;20153;-68
2022/01/17 06:20:11;;;;;;;23.77;3.45;;;6.50;99.90;;;;;;4945797;29;20368;-68
2022/01/17 06:22:37;;;;;;;17.25;3.42;;;6.50;99.90;;;;;;4940043;29;20519;-68
2022/01/17 06:25:04;;;;;;;21.37;4.33;;;6.50;99.90;;;;;;4943740;28;20409;-68
2022/01/17 06:27:29;;;;;;;16.17;3.92;;;6.50;99.90;;;;;;4944218;28;20039;-68
2022/01/17 06:29:56;;;;;;;12.97;2.67;;;6.50;99.90;;;;;;4943725;28;20557;-68
2022/01/17 06:32:21;;;;;;;23.65;3.40;;;6.50;99.90;;;;;;4945465;29;20053;-68
2022/01/17 06:34:47;;;;;;;14.20;2.63;;;6.50;99.90;;;;;;4939714;29;20486;-68
2022/01/17 06:37:14;;;;;;;15.93;3.53;;;6.50;99.90;;;;;;4938613;28;20489;-68
2022/01/17 06:39:39;;;;;;;13.05;2.80;;;6.50;99.90;;;;;;4944818;28;20456;-67
2022/01/17 06:42:05;;;;;;;14.23;2.53;;;6.50;99.90;;;;;;4937049;28;20043;-68
2022/01/17 06:44:31;;;;;;;19.52;3.55;;;6.50;99.90;;;;;;4943206;28;20047;-68
2022/01/17 06:46:56;;;;;;;18.83;2.90;;;6.50;99.90;;;;;;4943333;28;20328;-68
2022/01/17 06:49:22;;;;;;;16.50;2.57;;;6.50;99.90;;;;;;4944066;29;20059;-68
2022/01/17 06:51:47;;;;;;;12.70;2.50;;;6.50;99.90;;;;;;4945886;28;20110;-68
2022/01/17 06:54:13;;;;;;;23.17;3.47;;;6.50;99.90;;;;;;4945857;28;20074;-68
2022/01/17 06:56:43;;;;;;;23.33;3.00;;;6.60;99.90;;;;;;4940959;28;20046;-68
2022/01/17 06:59:13;;;;;;;20.02;4.57;;;6.60;99.90;;;;;;4941508;28;20118;-68
2022/01/17 07:01:39;;;;;;;23.88;3.58;;;6.60;99.90;;;;;;4941784;28;20489;-67
2022/01/17 07:04:06;;;;;;;22.48;3.97;;;6.60;99.90;;;;;;4946712;28;20054;-68
2022/01/17 07:06:32;;;;;;;18.85;3.45;;;6.70;99.90;;;;;;4937939;28;20339;-68
2022/01/17 07:08:58;;;;;;;21.50;3.17;;;6.60;99.90;;;;;;4944258;29;20070;-68
2022/01/17 07:11:23;;;;;;;9.67;3.37;;;6.60;99.90;;;;;;4945132;28;20370;-68
2022/01/17 07:13:49;;;;;;;18.80;3.63;;;6.70;99.90;;;;;;4947165;28;20102;-68
2022/01/17 07:16:14;;;;;;;10.93;2.73;;;6.70;99.90;;;;;;4935280;28;20042;-68
2022/01/17 07:18:40;;;;;;;28.30;4.70;;;6.70;99.90;;;;;;4941198;28;20138;-68
2022/01/17 07:21:07;;;;;;;21.10;3.37;;;6.70;99.90;;;;;;4943008;28;20097;-72
2022/01/17 07:23:32;;;;;;;18.15;2.85;;;6.80;99.90;;;;;;4934642;28;20095;-68
2022/01/17 07:25:58;;;;;;;15.33;2.97;;;6.70;99.90;;;;;;4940169;28;20035;-67
2022/01/17 07:28:24;;;;;;;24.23;3.80;;;6.70;99.90;;;;;;4938682;28;21160;-68
2022/01/17 07:30:49;;;;;;;19.90;3.23;;;6.70;99.90;;;;;;4943286;28;20050;-68
2022/01/17 07:33:16;;;;;;;29.73;3.03;;;6.70;99.90;;;;;;4945203;28;20042;-68
2022/01/17 07:35:44;;;;;;;25.35;3.08;;;6.70;99.90;;;;;;4940956;28;20047;-68
2022/01/17 07:38:10;;;;;;;20.45;3.30;;;6.80;99.90;;;;;;4941628;28;20097;-68
2022/01/17 07:40:35;;;;;;;16.57;3.63;;;6.80;99.90;;;;;;4940742;28;20067;-68
2022/01/17 07:43:01;;;;;;;29.87;5.07;;;6.80;99.90;;;;;;4944917;28;20048;-68
2022/01/17 07:45:30;;;;;;;27.13;3.87;;;6.80;99.90;;;;;;4950443;23;20059;-69
2022/01/17 07:50:24;;;;;;;22.10;4.40;;;6.90;99.90;;;;;;4916037;29;20050;-68
2022/01/17 07:52:53;;;;;;;24.05;3.38;;;6.90;99.90;;;;;;4908647;29;20062;-69
2022/01/17 07:55:20;;;;;;;17.55;2.63;;;6.90;99.90;;;;;;4907003;29;20715;-78
2022/01/17 07:57:46;;;;;;;26.00;3.38;;;6.90;99.90;;;;;;4925747;29;20082;-70
2022/01/17 08:00:15;;;;;;;22.33;3.53;;;6.90;99.90;;;;;;4920989;29;20048;-69
2022/01/17 08:02:41;;;;;;;20.65;3.42;;;7.00;99.90;;;;;;4925267;29;20263;-69
2022/01/17 08:05:14;;;;;;;31.83;3.57;;;7.00;99.90;;;;;;4921760;29;20122;-69
2022/01/17 08:07:40;;;;;;;25.15;3.90;;;7.00;99.90;;;;;;4921643;29;20047;-69
2022/01/17 08:10:12;;;;;;;23.55;5.03;;;7.10;99.90;;;;;;4917018;29;20139;-69
2022/01/17 08:12:42;;;;;;;21.38;4.10;;;7.10;99.90;;;;;;4924967;29;20044;-68
2022/01/17 08:15:08;;;;;;;27.55;3.97;;;7.10;99.90;;;;;;4924232;29;20047;-70
2022/01/17 08:17:34;;;;;;;;;;;7.10;99.90;;;;;;4927276;29;20431;-69
2022/01/17 08:19:59;;;;;;;28.35;3.75;;;7.20;99.90;;;;;;4922539;29;19923;-69
2022/01/17 08:22:25;;;;;;;19.80;3.70;;;7.20;99.90;;;;;;4925723;29;20107;-68
2022/01/17 08:24:50;;;;;;;32.30;3.93;;;7.20;99.90;;;;;;4930097;29;20062;-69
2022/01/17 08:27:17;;;;;;;23.73;4.33;;;7.20;99.90;;;;;;4924676;29;20043;-70
2022/01/17 08:29:42;;;;;;;20.42;3.92;;;7.20;99.90;;;;;;4929223;29;20098;-69
2022/01/17 08:32:08;;;;;;;22.80;4.50;;;7.30;99.90;;;;;;4945912;29;20047;-69
2022/01/17 08:34:34;;;;;;;29.23;4.10;;;7.30;99.90;;;;;;4927571;29;20055;-70
2022/01/17 08:37:00;;;;;;;16.20;3.17;;;7.30;99.90;;;;;;4931365;29;20048;-69
2022/01/17 08:39:25;;;;;;;24.00;4.47;;;7.30;99.90;;;;;;4931138;29;20063;-69
2022/01/17 08:41:52;;;;;;;23.97;3.20;;;7.30;99.90;;;;;;4929151;29;20508;-70
2022/01/17 08:44:19;;;;;;;23.48;3.42;;;7.40;99.90;;;;;;4928187;29;20043;-69
2022/01/17 08:46:45;;;;;;;22.55;2.85;;;7.40;99.90;;;;;;4925483;29;20046;-68
2022/01/17 08:49:11;;;;;;;26.73;3.88;;;7.40;99.90;;;;;;4911420;29;20036;-69
2022/01/17 08:51:37;;;;;;;26.48;4.07;;;7.50;99.90;;;;;;4932984;29;20055;-70
2022/01/17 08:54:04;;;;;;;18.20;3.80;;;7.50;99.90;;;;;;4923217;29;20059;-68
2022/01/17 08:56:30;;;;;;;;;;;7.60;99.90;;;;;;4929215;29;20071;-70
2022/01/17 08:58:59;;;;;;;25.92;3.40;;;7.60;99.90;;;;;;4940220;29;20009;-75
2022/01/17 09:01:25;;;;;;;22.15;3.55;;;7.70;99.90;;;;;;4931190;29;20115;-68
2022/01/17 09:03:51;;;;;;;23.47;2.97;;;7.70;99.90;;;;;;4928718;29;20531;-68
2022/01/17 09:06:17;;;;;;;19.37;4.03;;;7.70;99.90;;;;;;4923101;29;20378;-69
2022/01/17 09:08:42;;;;;;;32.40;4.57;;;7.70;99.90;;;;;;4937313;28;20047;-68
2022/01/17 09:11:09;;;;;;;25.10;3.70;;;7.80;99.90;;;;;;4926823;29;20046;-69
2022/01/17 09:13:34;;;;;;;25.08;3.55;;;7.80;99.90;;;;;;4944286;29;20303;-69
2022/01/17 09:16:00;;;;;;;20.97;4.17;;;7.90;99.90;;;;;;4928789;29;20074;-69
2022/01/17 09:18:26;;;;;;;23.67;3.17;;;8.00;99.90;;;;;;4928748;29;20493;-68
2022/01/17 09:20:52;;;;;;;23.63;4.28;;;8.00;99.90;;;;;;4928668;29;20103;-70
2022/01/17 09:23:18;;;;;;;25.60;3.28;;;8.10;99.90;;;;;;4928745;29;20047;-69
2022/01/17 09:25:44;;;;;;;26.45;3.92;;;8.10;99.90;;;;;;4922304;29;20098;-70
2022/01/17 09:28:10;;;;;;;50.83;4.65;;;8.10;99.90;;;;;;4924845;29;20656;-69
2022/01/17 09:30:36;;;;;;;17.95;2.80;;;8.20;99.90;;;;;;4919823;29;20055;-69
2022/01/17 09:33:03;;;;;;;29.70;3.27;;;8.10;99.90;;;;;;4910378;29;20043;-68
2022/01/17 09:35:29;;;;;;;19.35;3.42;;;8.10;99.90;;;;;;4910118;29;20470;-68
2022/01/17 09:37:55;;;;;;;23.33;2.40;;;8.10;99.90;;;;;;4929651;29;20079;-68
2022/01/17 09:40:21;;;;;;;22.30;3.78;;;8.10;99.90;;;;;;4929842;29;20067;-68
2022/01/17 09:42:47;;;;;;;19.80;4.13;;;8.20;99.90;;;;;;4926150;29;20048;-70
2022/01/17 09:45:16;;;;;;;23.55;5.38;;;8.20;99.90;;;;;;4929298;29;20071;-69
2022/01/17 09:47:43;;;;;;;27.77;3.55;;;8.20;99.90;;;;;;4920790;29;20087;-70
2022/01/17 09:50:13;;;;;;;27.23;4.03;;;8.30;99.90;;;;;;4940403;29;20054;-70
2022/01/17 09:52:50;;;;;;;27.88;4.28;;;8.40;99.90;;;;;;4925246;29;20043;-69
2022/01/17 09:55:21;;;;;;;27.33;5.28;;;8.50;99.90;;;;;;4923976;29;20107;-69
2022/01/17 09:57:54;;;;;;;25.75;5.10;;;8.60;99.90;;;;;;4923591;29;20064;-69
2022/01/17 10:00:26;;;;;;;34.88;4.95;;;8.60;99.90;;;;;;4922659;29;20050;-70
2022/01/17 10:02:57;;;;;;;24.30;4.68;;;8.70;99.90;;;;;;4926771;29;20134;-69
2022/01/17 10:05:24;;;;;;;25.67;5.10;;;8.70;99.90;;;;;;4927846;29;20040;-70
2022/01/17 10:08:00;;;;;;;21.58;3.85;;;8.80;99.90;;;;;;4926831;29;20048;-69
2022/01/17 10:11:01;;;;;;;32.60;4.28;;;8.80;99.90;;;;;;4942151;29;20054;-69
2022/01/17 10:13:38;;;;;;;35.88;5.15;;;8.80;99.90;;;;;;4908348;29;20040;-70
2022/01/17 10:16:04;;;;;;;;;;;8.90;99.90;;;;;;4925207;29;20045;-69
2022/01/17 10:18:39;;;;;;;23.55;4.40;;;8.90;99.90;;;;;;4925614;29;20021;-69
2022/01/17 10:21:18;;;;;;;33.78;5.18;;;8.90;99.90;;;;;;4921888;29;20114;-69
2022/01/17 10:24:11;;;;;;;21.02;3.97;;;8.90;99.90;;;;;;4928280;29;20241;-69
2022/01/17 10:29:52;;;;;;;32.67;4.72;;;9.00;99.90;;;;;;4934890;28;20412;-72
2022/01/17 10:35:14;;;;;;;29.88;3.92;;;9.10;99.90;;;;;;4930735;29;20036;-69
2022/01/17 10:37:40;;;;;;;25.55;5.53;;;9.20;99.90;;;;;;4927351;29;20089;-69
2022/01/17 10:40:10;;;;;;;27.88;5.80;;;9.20;99.90;;;;;;4927666;29;20445;-69
2022/01/17 10:42:45;;;;;;;32.80;4.32;;;9.20;99.90;;;;;;4926787;29;20493;-69
2022/01/17 10:45:24;;;;;;;36.22;6.93;;;9.20;99.90;;;;;;4922223;29;20035;-68
2022/01/17 10:47:55;;;;;;;34.00;5.97;;;9.30;99.90;;;;;;4928175;29;20051;-69
2022/01/17 10:50:23;;;;;;;32.85;5.03;;;9.20;99.90;;;;;;4927937;29;20050;-68
2022/01/17 10:52:54;;;;;;;24.35;4.50;;;9.30;99.90;;;;;;4929624;29;20048;-70
2022/01/17 10:55:32;;;;;;;33.95;5.78;;;9.30;99.90;;;;;;4929670;29;20122;-69
2022/01/17 10:58:38;;;;;;;38.30;5.43;;;9.20;99.90;;;;;;4924341;29;20044;-69
2022/01/17 11:01:12;;;;;;;30.73;4.68;;;9.30;99.90;;;;;;4927963;29;20287;-70
2022/01/17 11:03:40;;;;;;;42.53;6.70;;;9.30;99.90;;;;;;4928137;29;20393;-68
2022/01/17 11:06:09;;;;;;;34.28;4.57;;;9.40;99.90;;;;;;4922985;29;20244;-69
2022/01/17 11:08:36;;;;;;;27.42;5.05;;;9.50;99.90;;;;;;4923225;29;20410;-69
2022/01/17 11:11:05;;;;;;;28.02;4.95;;;9.40;99.90;;;;;;4920510;29;20473;-69
2022/01/17 11:13:33;;;;;;;32.80;5.13;;;9.40;99.90;;;;;;4917830;29;20052;-68
2022/01/17 11:16:04;;;;;;;31.23;6.07;;;9.40;99.90;;;;;;4925737;29;20227;-69
2022/01/17 11:18:30;;;;;;;37.58;5.97;;;9.50;99.90;;;;;;4932323;28;20056;-69
2022/01/17 11:21:10;;;;;;;35.42;5.03;;;9.50;99.90;;;;;;4926158;28;20535;-68
2022/01/17 11:23:37;;;;;;;39.53;5.65;;;9.50;99.90;;;;;;4925637;29;20055;-69
2022/01/17 11:26:05;;;;;;;35.00;6.05;;;9.50;99.90;;;;;;4919188;29;20036;-69
2022/01/17 11:28:33;;;;;;;34.13;6.18;;;9.60;99.90;;;;;;4916143;29;20522;-69
2022/01/17 11:31:01;;;;;;;35.05;5.63;;;9.70;99.90;;;;;;4920065;29;20162;-69
2022/01/17 11:33:28;;;;;;;26.75;5.72;;;9.70;99.90;;;;;;4917546;29;20052;-69
2022/01/17 11:35:55;;;;;;;34.33;5.68;;;9.70;99.90;;;;;;4919263;29;20051;-68
2022/01/17 11:38:28;;;;;;;31.00;4.30;;;9.80;99.90;;;;;;4920031;29;20051;-69
2022/01/17 11:40:56;;;;;;;28.27;4.82;;;9.80;99.90;;;;;;4935477;29;20151;-69
2022/01/17 11:43:39;;;;;;;42.60;6.60;;;9.80;99.90;;;;;;4923180;29;20404;-69
2022/01/17 11:46:17;;;;;;;32.28;5.38;;;9.90;99.90;;;;;;4920329;29;20089;-69
2022/01/17 11:48:50;;;;;;;28.30;4.95;;;9.80;99.90;;;;;;4921232;29;20118;-69
2022/01/17 11:51:16;;;;;;;31.23;5.43;;;9.90;99.90;;;;;;4902497;29;20500;-69
2022/01/17 11:53:51;;;;;;;21.48;5.38;;;9.90;99.90;;;;;;4922394;29;20047;-70
2022/01/17 11:56:37;;;;;;;33.08;7.20;;;9.90;99.90;;;;;;4919310;29;20059;-69
2022/01/17 11:59:34;;;;;;;33.70;5.97;;;10.00;99.90;;;;;;4921474;29;20067;-70
2022/01/17 12:02:49;;;;;;;28.67;5.25;;;10.10;99.90;;;;;;4921525;29;20063;-69
2022/01/17 12:05:15;;;;;;;38.72;5.30;;;10.20;99.90;;;;;;4921144;29;20082;-70
2022/01/17 12:07:52;;;;;;;36.13;7.13;;;10.30;99.90;;;;;;4919046;29;20058;-69
2022/01/17 12:10:21;;;;;;;38.38;6.28;;;10.20;99.90;;;;;;4918822;29;20044;-68
2022/01/17 12:13:24;;;;;;;42.55;6.40;;;10.20;99.90;;;;;;4924000;29;20532;-70
2022/01/17 12:15:57;;;;;;;31.20;5.63;;;10.20;99.90;;;;;;4922236;29;20115;-70
2022/01/17 12:18:27;;;;;;;43.22;6.30;;;10.10;99.90;;;;;;4922804;29;20138;-69
2022/01/17 12:20:53;;;;;;;39.50;6.07;;;10.10;99.90;;;;;;4906368;29;20130;-69
2022/01/17 12:23:28;;;;;;;47.20;6.43;;;10.10;99.90;;;;;;4924434;29;20052;-70
2022/01/17 12:25:53;;;;;;;36.50;5.63;;;10.10;99.90;;;;;;4922655;29;20043;-68
2022/01/17 12:28:19;;;;;;;38.93;4.93;;;10.10;99.90;;;;;;4903188;29;20047;-67
2022/01/17 12:30:55;;;;;;;32.03;5.03;;;10.20;99.90;;;;;;4923114;29;20054;-68
2022/01/17 12:33:39;;;;;;;37.35;5.18;;;10.10;99.90;;;;;;4919466;29;20044;-69
2022/01/17 12:36:25;;;;;;;44.65;6.85;;;10.10;99.90;;;;;;4921731;29;20583;-69
2022/01/17 12:38:51;;;;;;;34.90;4.80;;;10.10;99.90;;;;;;4914161;29;20524;-67
2022/01/17 12:41:35;;;;;;;44.83;9.35;;;10.10;99.90;;;;;;4919208;29;20043;-68
2022/01/17 12:44:22;;;;;;;41.15;6.45;;;10.10;99.90;;;;;;4915842;29;20126;-67
2022/01/17 12:46:50;;;;;;;28.80;5.72;;;10.10;99.90;;;;;;4920064;29;20434;-68
2022/01/17 12:49:16;;;;;;;36.72;6.65;;;10.20;99.90;;;;;;4919675;29;20100;-68
2022/01/17 12:51:44;;;;;;;29.55;5.63;;;10.30;99.90;;;;;;4914479;29;20142;-69
2022/01/17 12:54:12;;;;;;;35.35;6.53;;;10.30;99.90;;;;;;4920307;29;20052;-68
2022/01/17 12:56:41;;;;;;;36.47;5.88;;;10.30;99.90;;;;;;4924882;29;20119;-68
2022/01/17 12:59:09;;;;;;;47.45;6.85;;;10.20;99.90;;;;;;4914027;29;20520;-68
2022/01/17 13:01:35;;;;;;;36.50;6.32;;;10.10;99.90;;;;;;4916592;29;20054;-67
2022/01/17 13:04:04;;;;;;;35.80;5.60;;;10.10;99.90;;;;;;4917508;29;20044;-68
2022/01/17 13:06:30;;;;;;;39.05;6.25;;;10.00;99.90;;;;;;4920266;29;20130;-69
2022/01/17 13:08:59;;;;;;;32.83;5.75;;;10.00;99.90;;;;;;4916418;29;20535;-67
2022/01/17 13:11:25;;;;;;;31.63;5.22;;;10.00;99.90;;;;;;4922775;29;20039;-68
2022/01/17 13:13:58;;;;;;;44.03;6.40;;;9.90;99.90;;;;;;4923281;29;20043;-67
2022/01/17 13:16:24;;;;;;;38.83;5.88;;;9.90;99.90;;;;;;4921100;29;20114;-67